This is the latest recevied weather packets stored in our database for station/object KG4LKY-5. If no packets are shown the sender has not sent any weather packets the latest 10 day(s).
| Time | Temp. | Humidity | Pressure | Rain* | Wind** | Luminosity | Snow |
|---|---|---|---|---|---|---|---|
| 1777879500 | 9.44° C | 76% | 1016 hPa | 0 mm | - | - | - |
| 1777879200 | 8.33° C | 88% | 1015.8 hPa | 0 mm | - | - | - |
| 1777878900 | 8.33° C | 84% | 1016.3 hPa | 0 mm | - | - | - |
| 1777878599 | 8.89° C | 80% | 1016.4 hPa | 0 mm | - | - | - |
| 1777878299 | 8.33° C | 83% | 1016.5 hPa | 0 mm | - | - | - |
| 1777877999 | 8.89° C | 87% | 1016.4 hPa | 0 mm | - | - | - |
| 1777877699 | 8.33° C | 85% | 1016.5 hPa | 0 mm | - | - | - |
| 1777877398 | 8.33° C | 87% | 1016.6 hPa | 0 mm | - | - | - |
| 1777877098 | 8.33° C | 85% | 1016.7 hPa | 0 mm | - | - | - |
| 1777876798 | 8.89° C | 85% | 1016.8 hPa | 0 mm | - | - | - |
| 1777876497 | 8.33° C | 87% | 1016.9 hPa | 0 mm | - | - | - |
| 1777876196 | 7.78° C | 98% | 1016.8 hPa | 0 mm | - | - | - |
| 1777875895 | 7.78° C | 100% | 1016.8 hPa | 0 mm | - | - | - |
| 1777874994 | 6.67° C | 100% | 1016.9 hPa | 0 mm | - | - | - |
| 1777874094 | 6.67° C | 100% | 1017 hPa | 0 mm | - | - | - |
| 1777873493 | 6.11° C | 100% | 1016.9 hPa | 0 mm | - | - | - |
| 1777873193 | 6.11° C | 100% | 1016.9 hPa | 0 mm | - | - | - |
| 1777872893 | 6.11° C | 100% | 1016.9 hPa | 0 mm | - | - | - |
| 1777872592 | 6.11° C | 100% | 1017 hPa | 0 mm | - | - | - |
| 1777872292 | 6.11° C | 100% | 1017 hPa | 0 mm | - | - | - |
| 1777871992 | 6.11° C | 100% | 1017.1 hPa | 0 mm | - | - | - |
| 1777871692 | 5.56° C | 100% | 1017.1 hPa | 0 mm | - | - | - |
| 1777871391 | 6.11° C | 100% | 1017.1 hPa | 0 mm | - | - | - |
| 1777871093 | 6.11° C | 100% | 1017.1 hPa | 0 mm | - | - | - |
| 1777870792 | 5.56° C | 100% | 1017.2 hPa | 0 mm | - | - | - |
* Rain since midnight (hover to see other rain measurements)
** Current wind speed in m/s (hover to see current wind gust speed)